x

Portland 12 Nm Southeast Of Portland,me (44007) Wave Buoy

5:50 - Thu 24th Apr 2014 All times are EDT. -4 hours from GMT.

  • Sig Wave height 3.3ft
  • Swell Direction
  • Peak Period 4s
  • Average Period 4s
  • Wind
    29mph, 34mph gusts
  • Sea Temp 41°f
  • Air Temp 48°f
  • Sea Pressure 1005.5mb
  • Portland 12 Nm Southeast Of Portland,me
  • Portland 12 Nm Southeast Of Portland,me

More Historic Weather Station data

Upgrade to MSW Pro to gain access to the past 30 days of data for over 8000 Wavebouys and Weather Stations around the globe.

Join Pro

Comparision Forecast

View Surf forecast
   
jeu. 04/24 5:50 3.5ft 4s 4s 29 34 mph 1005.5mb 41f 48f
4:50 3ft 4s 4s 27 34 mph 1004.2mb 41f 49f
3:50 3ft 4s 4s 29 36 mph 1002.9mb 41f 49f
2:50 3ft 4s 3s 31 40 mph 1002.4mb 41f 49f
1:50 3.5ft 4s 4s 25 31 mph 1002.5mb 42f 47f
12:50 3.5ft 4s 4s 34 38 mph 1001.9mb 42f 47f
11:50 2.5ft 4s 3s 31 43 mph 1001.5mb 42f 46f
10:50 2.5ft 4s 3s 27 34 mph 1001.7mb 42f 45f
9:50 3ft 4s 3s 29 38 mph 1001mb 42f 44f
8:50 3ft 4s 3s 31 40 mph 1000.7mb 42f 43f
7:50 2.5ft 3s 3s 27 34 mph 1000.6mb 42f 42f
6:50 2.5ft 4s 3s 27 36 mph 1000.4mb 42f 42f
5:50 2.5ft 4s 4s 25 29 mph 999.9mb 42f 43f
4:50 2.5ft 3s 3s 25 31 mph 999mb 42f 43f
3:50 2.5ft 4s 3s 29 36 mph 998.8mb 42f 44f
2:50 2.5ft 3s 3s 29 36 mph 998.8mb 42f 44f
1:50 2.5ft 3s 3s 27 31 mph 999.2mb 42f 45f
12:50 2ft 3s 3s 22 31 mph 999.3mb 42f 46f
mer. 04/23 11:50 2.5ft 14s 4s 25 29 mph 999mb 42f 46f
10:50 3ft 3s 4s 22 27 mph 998.9mb 42f 46f
9:50 2.5ft 13s 3s 27 40 mph 998.5mb 42f 47f
8:50 2.5ft 3s 4s 22 27 mph 998.4mb 42f 47f
7:50 3ft 3s 4s 25 29 mph 997.7mb 41f 47f
6:50 3ft 3s 4s 31 38 mph 996.4mb 42f 48f
5:50 3ft 8s 4s 22 29 mph 996.3mb 42f 48f
4:50 2.5ft 8s 4s 22 29 mph 995.8mb 42f 49f
3:50 2.5ft 7s 4s 18 20 mph 995.7mb 43f 49f
2:50 2ft 8s 4s 20 25 mph 995.6mb 43f 49f
1:50 2.5ft 8s 6s 18 20 mph 995.5mb 44f 49f
12:50 2.5ft 8s 6s 7
mph
996.1mb 45f 51f
11:50 2.5ft 8s 6s 2 4 mph 996.5mb 44f 47f
10:50 2.5ft 8s 5s 2
mph
996.7mb 44f 45f
9:50 2.5ft 5s 5s 4
mph
996.5mb 43f 44f
8:50 2.5ft 5s 5s 2
mph
996.7mb 43f 44f
7:50 3ft 5s 5s  -  mph 996.7mb 42f 43f
6:50 3ft 5s 5s 2 4 mph 996.1mb 42f 43f
5:50 3.5ft 6s 5s 4
mph
995.6mb 42f 44f
4:50 3.5ft 6s 5s 4 7 mph 995.9mb 42f 44f
3:50 3.5ft 6s 5s 9 11 mph 995.7mb 42f 46f
2:50 3.5ft 8s 5s 9 11 mph 995.4mb 42f 46f
1:50 4ft 5s 5s 11
mph
996mb 43f 46f
12:50 4ft 8s 5s 9 11 mph 996.9mb 43f 46f
mar. 04/22 11:50 4ft 8s 5s 16 18 mph 996.7mb 44f 48f
10:50 3.5ft 6s 5s 4 9 mph 997.1mb 44f 46f
9:50 4.5ft 6s 5s 4 7 mph 997.8mb 44f 48f
8:50 3.5ft 5s 5s 7
mph
998.2mb 46f 48f
7:50 4.5ft 5s 5s 7 9 mph 998.2mb 45f 48f
6:50 3.5ft 9s 5s 9 11 mph 998mb 45f 47f
5:50 3.5ft 4s 5s 9 11 mph 998.6mb 45f 48f
4:50 3.5ft 7s 5s 2 4 mph 999.2mb 45f 47f
3:50 3.5ft 8s 5s 4 7 mph 1000mb 45f 47f
2:50 3ft 8s 5s 9 11 mph 1000.8mb 45f 47f
1:50 3ft 8s 5s 9 11 mph 1001.9mb 45f 45f
12:50 2.5ft 7s 5s 9
mph
1002.8mb 44f 45f
11:50 2.5ft 8s 5s 7 9 mph 1003.9mb 44f 45f
10:50 2.5ft 8s 5s 4 7 mph 1004.2mb 43f 45f
9:50 2.5ft 8s 5s 4
mph
1004.6mb 43f 44f
8:50 2.5ft 8s 5s 7
mph
1005.2mb 42f 44f
7:50 2.5ft 15s 5s  -  2 mph 1005.8mb 42f 44f
6:50 3ft 5s 5s 4 7 mph 1006.2mb 42f 43f
5:50 3ft 6s 5s 2 4 mph 1006.2mb 43f 44f
4:50 3.5ft 5s 5s 7 9 mph 1006.4mb 43f 45f
3:50 3ft 5s 5s 7 9 mph 1006.5mb 43f 45f
2:50 3ft 5s 5s 7
mph
1007.1mb 43f 44f
1:50 3ft 5s 4s 7 9 mph 1007.7mb 43f 45f
12:50 2.5ft 5s 4s 11 13 mph 1008.3mb 42f 45f
lun. 04/21 11:50 2.5ft 5s 4s 9
mph
1009.1mb 42f 45f
10:50 3ft 5s 4s 9
mph
1009.6mb 42f 45f
9:50 3.5ft 5s 4s 9 11 mph 1010.2mb 43f 45f
8:50 3.5ft 5s 4s 9 11 mph 1010.6mb 43f 46f
7:50 2.5ft 4s 4s 11
mph
1010.9mb 43f 46f
6:50 3ft 4s 4s 11 13 mph 1011.2mb 44f 45f
5:50 3ft 5s 4s 18 22 mph 1011.6mb 44f 45f
4:50 3.5ft 4s 4s 18 22 mph 1012.5mb 44f 45f
3:50 3ft 4s 4s 20 22 mph 1013.2mb 44f 45f
2:50 3ft 4s 4s 20 25 mph 1014.3mb 43f 44f
1:50 3.5ft 4s 4s 22 27 mph 1015.6mb 43f 43f
12:50 3ft 4s 4s 20 22 mph 1017.2mb 42f 43f
11:50 3ft 4s 4s 18 22 mph 1018.8mb 42f 42f
10:50 2.5ft 4s 4s 18 22 mph 1019.8mb 42f 42f
9:50 2.5ft 4s 4s 18 22 mph 1020.7mb 42f 42f
8:50 2.5ft 4s 4s 18 22 mph 1021.1mb 42f 42f
7:50 2.5ft 4s 4s 18 20 mph 1021.9mb 42f 42f
6:50 2.5ft 4s 4s 18 20 mph 1022mb 42f 42f
5:50 2.5ft 4s 4s 16 18 mph 1022.4mb 42f 42f
4:50 2.5ft 4s 4s 13 16 mph 1022.8mb 42f 42f
3:50 2.5ft 4s 4s 13 16 mph 1023.2mb 42f 42f
2:50 2.5ft 4s 4s 13 16 mph 1024.1mb 42f 41f
1:50 2.5ft 4s 4s 13 16 mph 1025.3mb 42f 41f
12:50 2.5ft 4s 4s 16 18 mph 1026.3mb 42f 41f
dim. 04/20 11:50 2.5ft 4s 4s 16 18 mph 1027.3mb 42f 42f